Terminal Aerodrome Forecast
Issued by NWS

Home | Current Version | Previous Version | Text Only | Print | Product List | Glossary On
Versions: 1 2 3 4 5 6 7 8 9 10 11 12 13 14 15 16 17 18 19 20 21
000
FTUS41 KPBZ 010201 AAA
TAFZZV
TAF AMD
KZZV 010201Z 0102/0124 24005KT P6SM BKN050
      TEMPO 0103/0104 5SM -SHRA BR
     FM010800 25005KT 5SM BR BKN010
     FM011600 27010KT P6SM BKN035
     FM011900 30010KT P6SM SCT040=

USA.gov is the U.S. government's official web portal to all federal, state and local government web resources and services.